Time;durP1;ratioP1;P1;durP2;ratioP2;P2;SDS_P1;SDS_P2;PMS_P1;PMS_P2;Temp;Humidity;BMP_temperature;BMP_pressure;BME280_temperature;BME280_humidity;BME280_pressure;Samples;Min_cycle;Max_cycle;Signal;HPM_P1;HPM_P2
2021/12/12 00:00:15;;;;;;;35.33;15.07;;;;;;;;;;5017155;28;20531;-62
2021/12/12 00:02:55;;;;;;;41.30;17.43;;;;;;;;;;5016903;28;20458;-63
2021/12/12 00:05:22;;;;;;;27.87;15.30;;;;;;;;;;5017118;28;20842;-64
2021/12/12 00:07:48;;;;;;;34.40;15.87;;;;;;;;;;4999282;28;20447;-63
2021/12/12 00:10:20;;;;;;;38.73;17.57;;;;;;;;;;4998521;28;20429;-63
2021/12/12 00:12:48;;;;;;;32.07;14.80;;;;;;;;;;5016927;28;20411;-63
2021/12/12 00:15:15;;;;;;;40.13;17.37;;;;;;;;;;5016696;28;20411;-63
2021/12/12 00:17:41;;;;;;;31.87;16.53;;;;;;;;;;5016802;28;20500;-63
2021/12/12 00:20:08;;;;;;;35.73;16.60;;;;;;;;;;5017006;28;20871;-63
2021/12/12 00:22:34;;;;;;;31.43;16.40;;;;;;;;;;5016354;28;20498;-63
2021/12/12 00:25:00;;;;;;;34.40;17.97;;;;;;;;;;4999127;28;20422;-63
2021/12/12 00:27:26;;;;;;;28.67;16.53;;;;;;;;;;5016833;28;20658;-63
2021/12/12 00:29:52;;;;;;;41.37;17.03;;;;;;;;;;5016892;28;20572;-63
2021/12/12 00:32:18;;;;;;;29.17;15.67;;;;;;;;;;5016481;28;20186;-63
2021/12/12 00:34:49;;;;;;;31.90;15.73;;;;;;;;;;5017229;28;20184;-63
2021/12/12 00:37:16;;;;;;;29.60;16.37;;;;;;;;;;5028858;28;20171;-63
2021/12/12 00:39:44;;;;;;;31.37;15.03;;;;;;;;;;5013305;28;20438;-63
2021/12/12 00:42:12;;;;;;;32.60;18.40;;;;;;;;;;5012881;28;20458;-63
2021/12/12 00:44:39;;;;;;;30.00;15.43;;;;;;;;;;5020248;28;20327;-63
2021/12/12 00:47:07;;;;;;;29.73;15.50;;;;;;;;;;4998466;28;20824;-65
2021/12/12 00:49:35;;;;;;;29.77;14.60;;;;;;;;;;5016129;28;20196;-63
2021/12/12 00:52:01;;;;;;;30.37;14.50;;;;;;;;;;4998589;28;20274;-63
2021/12/12 00:54:31;;;;;;;35.17;15.00;;;;;;;;;;4998744;28;20180;-63
2021/12/12 00:56:58;;;;;;;26.93;14.90;;;;;;;;;;4998309;28;20190;-63
2021/12/12 00:59:24;;;;;;;28.97;14.77;;;;;;;;;;4998391;28;20238;-63
2021/12/12 01:01:50;;;;;;;25.93;13.97;;;;;;;;;;4998193;28;20243;-63
2021/12/12 01:04:31;;;;;;;29.23;15.17;;;;;;;;;;4998705;28;20650;-62
2021/12/12 01:06:58;;;;;;;36.57;16.00;;;;;;;;;;4998327;28;20425;-62
2021/12/12 01:09:26;;;;;;;29.83;16.33;;;;;;;;;;5015954;28;20207;-62
2021/12/12 01:11:53;;;;;;;30.13;15.80;;;;;;;;;;5015729;28;20422;-63
2021/12/12 01:14:22;;;;;;;29.77;15.50;;;;;;;;;;4998391;28;20200;-63
2021/12/12 01:16:50;;;;;;;26.83;15.60;;;;;;;;;;5016303;28;20187;-63
2021/12/12 01:19:18;;;;;;;25.33;15.57;;;;;;;;;;5016046;28;20215;-63
2021/12/12 01:21:48;;;;;;;23.77;13.57;;;;;;;;;;5016696;28;20203;-63
2021/12/12 01:24:18;;;;;;;25.50;15.00;;;;;;;;;;5020049;28;20407;-62
2021/12/12 01:26:46;;;;;;;22.17;14.40;;;;;;;;;;5002558;28;20222;-63
2021/12/12 01:29:12;;;;;;;28.30;14.67;;;;;;;;;;5018218;28;20458;-65
2021/12/12 01:31:46;;;;;;;27.53;14.97;;;;;;;;;;5017789;28;20184;-63
2021/12/12 01:34:14;;;;;;;28.07;13.10;;;;;;;;;;5018657;28;20163;-63
2021/12/12 01:39:17;;;;;;;22.43;12.93;;;;;;;;;;5018367;28;20253;-63
2021/12/12 01:41:56;;;;;;;28.07;13.33;;;;;;;;;;5000310;28;20208;-63
2021/12/12 01:44:42;;;;;;;21.20;11.77;;;;;;;;;;5023749;28;20171;-63
2021/12/12 01:47:08;;;;;;;17.97;11.63;;;;;;;;;;5018408;28;20887;-63
2021/12/12 01:49:35;;;;;;;23.17;12.30;;;;;;;;;;5006717;28;20206;-63
2021/12/12 01:52:01;;;;;;;24.27;11.67;;;;;;;;;;5023156;28;20710;-62
2021/12/12 01:54:31;;;;;;;20.47;10.53;;;;;;;;;;5015736;28;20187;-62
2021/12/12 01:56:59;;;;;;;16.77;11.63;;;;;;;;;;4998040;28;20191;-62
2021/12/12 01:59:27;;;;;;;20.80;11.03;;;;;;;;;;4998216;28;20195;-63
2021/12/12 02:01:58;;;;;;;22.07;10.63;;;;;;;;;;5014836;28;20462;-62
2021/12/12 02:04:27;;;;;;;20.90;11.13;;;;;;;;;;5015222;28;20176;-62
2021/12/12 02:06:53;;;;;;;17.73;10.57;;;;;;;;;;4997361;28;20182;-62
2021/12/12 02:09:19;;;;;;;22.50;11.37;;;;;;;;;;4997118;28;20226;-62
2021/12/12 02:11:48;;;;;;;18.87;10.73;;;;;;;;;;5014768;28;20180;-62
2021/12/12 02:14:20;;;;;;;16.33;9.50;;;;;;;;;;5014936;28;20184;-62
2021/12/12 02:16:49;;;;;;;18.27;10.00;;;;;;;;;;5014942;28;20598;-62
2021/12/12 02:19:16;;;;;;;19.40;10.20;;;;;;;;;;4996861;28;20454;-62
2021/12/12 02:21:59;;;;;;;20.33;10.10;;;;;;;;;;4996753;28;20210;-62
2021/12/12 02:35:44;;;;;;;16.00;9.13;;;;;;;;;;4996697;28;20264;-63
2021/12/12 02:38:13;;;;;;;15.17;8.97;;;;;;;;;;4996528;28;20157;-63
2021/12/12 02:40:44;;;;;;;18.13;8.53;;;;;;;;;;4994811;28;20205;-62
2021/12/12 02:43:11;;;;;;;16.63;8.67;;;;;;;;;;4995663;28;20192;-63
2021/12/12 02:45:38;;;;;;;11.73;8.33;;;;;;;;;;4996264;28;20734;-62
2021/12/12 02:48:06;;;;;;;18.50;8.03;;;;;;;;;;4995985;28;20176;-62
2021/12/12 02:50:43;;;;;;;18.30;9.43;;;;;;;;;;4996060;28;20179;-67
2021/12/12 02:53:23;;;;;;;17.77;9.20;;;;;;;;;;4995216;28;20632;-64
2021/12/12 02:55:52;;;;;;;17.23;8.13;;;;;;;;;;4996000;28;20244;-63
2021/12/12 02:58:21;;;;;;;13.67;8.43;;;;;;;;;;4996843;28;20199;-63
2021/12/12 03:00:53;;;;;;;14.50;8.00;;;;;;;;;;4995998;28;20708;-63
2021/12/12 03:03:19;;;;;;;11.97;7.50;;;;;;;;;;4996164;28;20668;-63
2021/12/12 03:05:46;;;;;;;14.60;8.27;;;;;;;;;;4994799;28;20227;-63
2021/12/12 03:08:13;;;;;;;16.37;7.80;;;;;;;;;;4996359;28;20236;-62
2021/12/12 03:10:41;;;;;;;13.73;7.27;;;;;;;;;;4995463;28;20188;-63
2021/12/12 03:13:08;;;;;;;12.47;7.47;;;;;;;;;;4995391;28;20603;-62
2021/12/12 03:15:38;;;;;;;11.03;6.73;;;;;;;;;;4995704;28;20204;-62
2021/12/12 03:18:05;;;;;;;12.33;7.10;;;;;;;;;;4996693;28;20223;-64
2021/12/12 03:20:35;;;;;;;13.90;7.73;;;;;;;;;;4995662;28;20185;-63
2021/12/12 03:23:06;;;;;;;18.27;7.53;;;;;;;;;;4995488;28;20232;-63
2021/12/12 03:25:34;;;;;;;11.83;6.63;;;;;;;;;;4994437;28;20663;-64
2021/12/12 03:28:00;;;;;;;10.97;6.93;;;;;;;;;;4995393;28;20423;-63
2021/12/12 03:30:27;;;;;;;10.17;6.90;;;;;;;;;;4995956;28;20692;-63
2021/12/12 03:32:53;;;;;;;13.83;7.10;;;;;;;;;;4996322;28;20191;-64
2021/12/12 03:35:19;;;;;;;10.63;7.10;;;;;;;;;;4995437;28;20660;-59
2021/12/12 03:37:45;;;;;;;14.43;7.40;;;;;;;;;;4994036;28;20200;-63
2021/12/12 03:40:17;;;;;;;13.23;7.30;;;;;;;;;;4994050;28;20180;-63
2021/12/12 03:42:45;;;;;;;13.57;7.47;;;;;;;;;;4996064;28;20727;-63
2021/12/12 03:45:12;;;;;;;11.50;7.37;;;;;;;;;;4996834;28;20458;-64
2021/12/12 03:47:50;;;;;;;15.30;7.97;;;;;;;;;;4999602;28;20271;-64
2021/12/12 03:50:24;;;;;;;14.13;8.27;;;;;;;;;;4999877;28;20602;-64
2021/12/12 03:52:51;;;;;;;11.90;7.57;;;;;;;;;;4999280;28;20173;-63
2021/12/12 03:55:17;;;;;;;13.67;7.20;;;;;;;;;;4999159;28;20200;-63
2021/12/12 03:57:44;;;;;;;13.40;7.93;;;;;;;;;;4998881;28;20212;-63
2021/12/12 04:00:13;;;;;;;13.40;7.70;;;;;;;;;;4998021;28;20223;-64
2021/12/12 04:02:39;;;;;;;14.80;8.43;;;;;;;;;;4997655;28;20240;-63
2021/12/12 04:05:05;;;;;;;14.93;7.90;;;;;;;;;;4998646;28;20200;-63
2021/12/12 04:07:32;;;;;;;17.20;8.33;;;;;;;;;;4996231;28;20212;-64
2021/12/12 04:09:59;;;;;;;15.20;8.80;;;;;;;;;;4998704;28;20223;-65
2021/12/12 04:12:25;;;;;;;16.60;8.53;;;;;;;;;;4998908;28;20184;-64
2021/12/12 04:14:52;;;;;;;15.80;8.53;;;;;;;;;;4997430;28;20208;-63
2021/12/12 04:17:20;;;;;;;15.83;8.53;;;;;;;;;;4998767;28;20213;-63
2021/12/12 04:19:48;;;;;;;19.30;8.77;;;;;;;;;;4998443;28;20172;-63
2021/12/12 04:22:14;;;;;;;16.43;9.03;;;;;;;;;;4997247;28;20579;-63
2021/12/12 04:24:43;;;;;;;18.23;9.03;;;;;;;;;;4998236;28;20222;-63
2021/12/12 04:27:09;;;;;;;20.60;9.27;;;;;;;;;;4998742;28;20177;-65
2021/12/12 04:29:40;;;;;;;18.00;9.23;;;;;;;;;;4997957;28;20286;-64
2021/12/12 04:32:07;;;;;;;18.93;9.27;;;;;;;;;;4998059;28;20173;-65
2021/12/12 04:34:35;;;;;;;17.10;9.23;;;;;;;;;;4998407;28;20212;-64
2021/12/12 04:37:02;;;;;;;15.47;8.73;;;;;;;;;;4998165;28;20264;-63
2021/12/12 04:39:30;;;;;;;13.50;8.33;;;;;;;;;;4998179;28;20191;-63
2021/12/12 04:41:59;;;;;;;13.03;8.60;;;;;;;;;;4996941;28;20231;-63
2021/12/12 04:44:29;;;;;;;12.93;9.27;;;;;;;;;;4997136;28;20578;-62
2021/12/12 04:50:10;;;;;;;13.77;9.80;;;;;;;;;;4998589;28;20162;-63
2021/12/12 04:52:39;;;;;;;19.43;9.87;;;;;;;;;;4998338;28;20176;-64
2021/12/12 04:55:05;;;;;;;19.27;10.10;;;;;;;;;;4997310;28;20204;-63
2021/12/12 04:57:57;;;;;;;20.93;9.83;;;;;;;;;;4998141;28;20547;-63
2021/12/12 05:00:28;;;;;;;18.73;9.40;;;;;;;;;;4995871;28;20235;-64
2021/12/12 05:03:14;;;;;;;20.77;9.70;;;;;;;;;;4998825;28;20203;-66
2021/12/12 05:06:06;;;;;;;21.97;9.17;;;;;;;;;;4996197;28;20200;-64
2021/12/12 05:08:34;;;;;;;18.53;9.03;;;;;;;;;;4993554;28;20227;-64
2021/12/12 05:11:14;;;;;;;13.47;8.93;;;;;;;;;;4996536;28;20216;-64
2021/12/12 05:13:46;;;;;;;16.80;8.97;;;;;;;;;;4997642;28;20176;-65
2021/12/12 05:16:16;;;;;;;19.30;9.43;;;;;;;;;;4996538;28;20180;-65
2021/12/12 05:18:50;;;;;;;16.50;8.40;;;;;;;;;;4997759;28;20226;-63
2021/12/12 05:21:18;;;;;;;20.10;9.73;;;;;;;;;;4996626;28;20547;-66
2021/12/12 05:23:45;;;;;;;18.67;9.60;;;;;;;;;;4997708;28;20227;-64
2021/12/12 05:26:13;;;;;;;19.97;10.57;;;;;;;;;;4997359;28;20192;-64
2021/12/12 05:29:00;;;;;;;14.43;9.53;;;;;;;;;;4997918;28;20213;-68
2021/12/12 05:31:26;;;;;;;23.43;11.37;;;;;;;;;;4997524;28;20259;-63
2021/12/12 05:33:53;;;;;;;21.33;11.53;;;;;;;;;;4997351;28;20227;-64
2021/12/12 05:36:19;;;;;;;20.13;10.73;;;;;;;;;;4997462;28;20263;-64
2021/12/12 05:38:46;;;;;;;18.10;12.13;;;;;;;;;;4996959;28;20305;-66
2021/12/12 05:41:12;;;;;;;28.43;14.60;;;;;;;;;;4995662;28;20247;-64
2021/12/12 05:43:38;;;;;;;33.30;14.13;;;;;;;;;;4996988;28;20209;-65
2021/12/12 05:46:05;;;;;;;28.93;14.80;;;;;;;;;;4996815;28;20180;-66
2021/12/12 05:48:31;;;;;;;29.83;15.10;;;;;;;;;;4996859;28;20227;-64
2021/12/12 05:50:57;;;;;;;27.27;15.83;;;;;;;;;;4995453;28;20718;-64
2021/12/12 05:53:23;;;;;;;27.20;14.17;;;;;;;;;;4996659;28;20351;-64
2021/12/12 05:55:49;;;;;;;25.87;14.83;;;;;;;;;;4997117;28;20216;-64
2021/12/12 05:58:17;;;;;;;30.23;16.03;;;;;;;;;;4997392;28;20176;-64
2021/12/12 06:00:46;;;;;;;29.93;14.43;;;;;;;;;;4995567;28;20264;-64
2021/12/12 06:03:13;;;;;;;26.17;14.20;;;;;;;;;;4995454;28;20256;-65
2021/12/12 06:05:39;;;;;;;22.73;13.50;;;;;;;;;;4995722;28;20207;-64
2021/12/12 06:08:06;;;;;;;26.00;14.20;;;;;;;;;;4996265;28;20181;-65
2021/12/12 06:10:35;;;;;;;28.50;14.93;;;;;;;;;;4995925;28;20183;-66
2021/12/12 06:13:02;;;;;;;21.97;13.97;;;;;;;;;;4995288;28;20195;-64
2021/12/12 06:15:30;;;;;;;27.50;14.27;;;;;;;;;;4996569;28;20204;-63
2021/12/12 06:17:56;;;;;;;24.87;15.40;;;;;;;;;;4995273;28;20234;-64
2021/12/12 06:20:23;;;;;;;32.70;15.43;;;;;;;;;;4996580;28;20184;-65
2021/12/12 06:22:49;;;;;;;28.07;16.53;;;;;;;;;;4995461;28;20214;-64
2021/12/12 06:25:15;;;;;;;36.23;18.17;;;;;;;;;;4994811;28;20714;-63
2021/12/12 06:27:42;;;;;;;36.73;21.17;;;;;;;;;;4996695;28;20185;-65
2021/12/12 06:30:09;;;;;;;41.17;23.83;;;;;;;;;;4995124;28;20208;-64
2021/12/12 06:32:36;;;;;;;46.03;25.83;;;;;;;;;;4996281;28;20239;-64
2021/12/12 06:35:04;;;;;;;39.50;25.53;;;;;;;;;;4996665;28;20205;-65
2021/12/12 06:37:30;;;;;;;42.13;27.07;;;;;;;;;;4996168;28;20184;-64
2021/12/12 06:39:57;;;;;;;44.67;28.20;;;;;;;;;;4996678;28;20644;-63
2021/12/12 06:42:23;;;;;;;44.23;28.13;;;;;;;;;;4997096;28;20262;-64
2021/12/12 06:44:49;;;;;;;42.90;27.27;;;;;;;;;;4996119;28;20228;-63
2021/12/12 06:47:17;;;;;;;37.83;26.90;;;;;;;;;;4996117;28;20191;-64
2021/12/12 06:49:43;;;;;;;38.37;26.30;;;;;;;;;;4995894;28;20187;-65
2021/12/12 06:52:10;;;;;;;38.50;25.33;;;;;;;;;;4996065;28;20212;-64
2021/12/12 06:54:36;;;;;;;34.27;23.57;;;;;;;;;;4995187;28;20239;-65
2021/12/12 06:57:05;;;;;;;33.60;20.77;;;;;;;;;;4994726;28;20191;-63
2021/12/12 06:59:32;;;;;;;30.33;20.67;;;;;;;;;;4996323;28;20228;-64
2021/12/12 07:01:58;;;;;;;29.30;19.00;;;;;;;;;;4994762;28;20702;-64
2021/12/12 07:04:26;;;;;;;30.90;20.87;;;;;;;;;;4996583;28;20723;-64
2021/12/12 07:06:54;;;;;;;37.03;25.70;;;;;;;;;;4996245;28;20236;-63
2021/12/12 07:09:20;;;;;;;32.60;23.90;;;;;;;;;;4994809;28;20180;-64
2021/12/12 07:11:47;;;;;;;25.93;19.07;;;;;;;;;;4996422;28;20219;-65
2021/12/12 07:14:14;;;;;;;24.37;18.20;;;;;;;;;;4994682;28;20197;-65
2021/12/12 07:16:40;;;;;;;38.60;23.70;;;;;;;;;;4996604;28;20554;-64
2021/12/12 07:19:07;;;;;;;28.17;20.03;;;;;;;;;;4997135;28;20176;-64
2021/12/12 07:21:33;;;;;;;30.73;21.27;;;;;;;;;;4999784;28;20180;-63
2021/12/12 07:24:00;;;;;;;31.73;21.73;;;;;;;;;;4999819;28;20192;-64
2021/12/12 07:26:26;;;;;;;37.07;24.43;;;;;;;;;;4998321;28;20620;-64
2021/12/12 07:28:53;;;;;;;36.87;24.40;;;;;;;;;;4999947;28;20181;-64
2021/12/12 07:31:21;;;;;;;28.47;20.43;;;;;;;;;;4998706;28;20212;-64
2021/12/12 07:33:49;;;;;;;30.03;20.63;;;;;;;;;;4998902;28;20208;-62
2021/12/12 07:36:16;;;;;;;30.40;21.87;;;;;;;;;;4997961;28;20238;-63
2021/12/12 07:38:43;;;;;;;30.50;21.17;;;;;;;;;;4998294;28;20184;-65
2021/12/12 07:41:10;;;;;;;26.50;19.03;;;;;;;;;;4997741;28;20547;-64
2021/12/12 07:43:36;;;;;;;24.03;17.07;;;;;;;;;;4999969;28;20297;-64
2021/12/12 07:46:02;;;;;;;24.60;16.03;;;;;;;;;;4999444;28;20203;-64
2021/12/12 07:48:28;;;;;;;24.77;15.53;;;;;;;;;;4999369;28;20251;-64
2021/12/12 07:50:55;;;;;;;23.27;14.70;;;;;;;;;;5000112;28;20648;-64
2021/12/12 07:53:23;;;;;;;22.47;14.53;;;;;;;;;;4997858;28;20779;-70
2021/12/12 07:55:49;;;;;;;19.57;14.37;;;;;;;;;;4999438;28;20609;-63
2021/12/12 07:58:17;;;;;;;20.93;13.83;;;;;;;;;;4998551;28;20188;-64
2021/12/12 08:00:45;;;;;;;17.83;13.70;;;;;;;;;;4999160;28;20184;-63
2021/12/12 08:03:12;;;;;;;22.37;13.93;;;;;;;;;;4998910;28;20196;-64
2021/12/12 08:05:39;;;;;;;21.37;13.77;;;;;;;;;;4997858;28;20236;-65
2021/12/12 08:08:07;;;;;;;19.37;13.97;;;;;;;;;;4999561;28;20659;-65
2021/12/12 08:10:34;;;;;;;24.07;16.10;;;;;;;;;;4999035;28;20235;-65
2021/12/12 08:13:00;;;;;;;23.73;14.90;;;;;;;;;;4998770;28;20184;-65
2021/12/12 08:15:28;;;;;;;19.13;15.20;;;;;;;;;;4998944;28;20687;-64
2021/12/12 08:17:56;;;;;;;21.33;15.33;;;;;;;;;;4998949;28;20206;-64
2021/12/12 08:20:22;;;;;;;23.50;17.03;;;;;;;;;;4998906;28;20208;-64
2021/12/12 08:22:49;;;;;;;18.47;14.30;;;;;;;;;;4997666;28;20657;-66
2021/12/12 08:25:17;;;;;;;17.07;12.97;;;;;;;;;;4998407;28;20219;-64
2021/12/12 08:27:44;;;;;;;19.27;15.13;;;;;;;;;;4999233;28;20239;-63
2021/12/12 08:30:11;;;;;;;21.50;14.60;;;;;;;;;;4996782;28;20180;-64
2021/12/12 08:32:37;;;;;;;19.23;14.17;;;;;;;;;;4997222;28;20560;-63
2021/12/12 08:35:05;;;;;;;21.07;15.00;;;;;;;;;;4997188;28;20232;-64
2021/12/12 08:37:32;;;;;;;19.23;14.87;;;;;;;;;;4998457;28;20184;-66
2021/12/12 08:39:58;;;;;;;19.10;14.53;;;;;;;;;;4997354;28;20265;-64
2021/12/12 08:42:26;;;;;;;20.80;14.70;;;;;;;;;;4998566;28;20240;-64
2021/12/12 08:44:53;;;;;;;24.70;16.27;;;;;;;;;;4998358;28;20193;-63
2021/12/12 08:47:19;;;;;;;20.23;15.13;;;;;;;;;;4997371;28;20268;-67
2021/12/12 08:49:46;;;;;;;26.83;16.03;;;;;;;;;;4999009;28;20679;-64
2021/12/12 08:52:15;;;;;;;21.40;14.67;;;;;;;;;;4998191;28;20234;-64
2021/12/12 08:54:42;;;;;;;25.90;15.10;;;;;;;;;;4998774;28;20208;-63
2021/12/12 08:57:12;;;;;;;25.37;14.67;;;;;;;;;;4996674;28;20180;-63
2021/12/12 08:59:45;;;;;;;23.03;14.40;;;;;;;;;;4997922;28;20561;-63
2021/12/12 09:02:13;;;;;;;21.63;14.37;;;;;;;;;;4998404;28;20304;-62
2021/12/12 09:04:42;;;;;;;21.97;14.93;;;;;;;;;;4996608;28;20287;-63
2021/12/12 09:07:20;;;;;;;20.77;15.77;;;;;;;;;;4998084;28;20262;-61
2021/12/12 09:09:52;;;;;;;23.17;15.00;;;;;;;;;;4998071;28;20269;-61
2021/12/12 09:12:21;;;;;;;19.43;14.73;;;;;;;;;;4998115;28;20180;-62
2021/12/12 09:14:47;;;;;;;18.87;13.93;;;;;;;;;;4997732;28;20200;-61
2021/12/12 09:17:17;;;;;;;19.67;14.80;;;;;;;;;;4997767;28;20203;-62
2021/12/12 09:19:46;;;;;;;21.13;14.63;;;;;;;;;;4998258;28;20191;-62
2021/12/12 09:22:15;;;;;;;20.60;14.57;;;;;;;;;;4996801;28;20207;-62
2021/12/12 09:24:47;;;;;;;19.20;14.40;;;;;;;;;;4997464;28;20212;-65
2021/12/12 09:27:23;;;;;;;17.97;12.97;;;;;;;;;;4997734;28;20216;-62
2021/12/12 09:29:55;;;;;;;20.70;12.50;;;;;;;;;;4996070;28;20275;-67
2021/12/12 09:32:30;;;;;;;17.27;13.03;;;;;;;;;;4997735;28;20200;-62
2021/12/12 09:35:00;;;;;;;22.80;13.43;;;;;;;;;;4995856;28;20211;-64
2021/12/12 09:37:30;;;;;;;19.23;13.57;;;;;;;;;;4996758;28;20208;-62
2021/12/12 09:39:59;;;;;;;20.67;14.10;;;;;;;;;;4997418;28;20184;-62
2021/12/12 09:42:36;;;;;;;19.60;15.43;;;;;;;;;;4996075;28;20196;-61
2021/12/12 09:45:20;;;;;;;18.77;14.40;;;;;;;;;;4997104;28;20203;-62
2021/12/12 09:47:59;;;;;;;18.13;14.10;;;;;;;;;;4995757;28;20180;-63
2021/12/12 09:53:24;;;;;;;21.60;13.97;;;;;;;;;;4995880;28;20252;-63
2021/12/12 09:55:58;;;;;;;18.90;13.27;;;;;;;;;;4996529;28;20196;-63
2021/12/12 09:58:29;;;;;;;20.00;12.60;;;;;;;;;;4995415;28;20187;-64
2021/12/12 10:00:58;;;;;;;17.53;12.87;;;;;;;;;;4996702;28;20164;-63
2021/12/12 10:03:29;;;;;;;19.43;13.17;;;;;;;;;;4996716;28;20267;-64
2021/12/12 10:06:01;;;;;;;21.37;12.80;;;;;;;;;;4996529;28;20675;-62
2021/12/12 10:08:48;;;;;;;18.60;13.20;;;;;;;;;;4997185;28;20165;-62
2021/12/12 10:11:19;;;;;;;23.30;14.50;;;;;;;;;;4996905;28;20163;-65
2021/12/12 10:13:56;;;;;;;17.93;12.80;;;;;;;;;;4995298;28;20303;-63
2021/12/12 10:16:36;;;;;;;18.40;13.53;;;;;;;;;;4996427;28;20187;-64
2021/12/12 10:19:12;;;;;;;20.20;12.47;;;;;;;;;;4996856;28;20535;-64
2021/12/12 10:21:45;;;;;;;18.93;12.17;;;;;;;;;;4995033;28;20185;-66
2021/12/12 10:24:19;;;;;;;19.07;13.10;;;;;;;;;;4996477;28;20298;-63
2021/12/12 10:26:47;;;;;;;17.70;12.97;;;;;;;;;;4995038;28;20180;-63
2021/12/12 10:29:17;;;;;;;16.27;12.93;;;;;;;;;;4996211;28;20247;-64
2021/12/12 10:31:46;;;;;;;19.93;14.37;;;;;;;;;;4995993;28;20180;-64
2021/12/12 10:34:15;;;;;;;24.30;14.80;;;;;;;;;;4994939;28;20278;-64
2021/12/12 10:36:57;;;;;;;15.77;12.30;;;;;;;;;;4996225;28;20598;-63
2021/12/12 10:39:34;;;;;;;20.93;13.80;;;;;;;;;;4995267;28;20184;-64
2021/12/12 10:42:02;;;;;;;19.47;12.80;;;;;;;;;;4996573;28;20624;-63
2021/12/12 10:44:32;;;;;;;18.70;14.03;;;;;;;;;;4995135;28;20200;-64
2021/12/12 10:47:13;;;;;;;17.90;12.37;;;;;;;;;;4996315;28;20188;-64
2021/12/12 10:49:58;;;;;;;20.47;14.13;;;;;;;;;;4996131;28;20259;-63
2021/12/12 10:52:34;;;;;;;19.60;12.83;;;;;;;;;;4994106;28;20192;-64
2021/12/12 10:55:06;;;;;;;21.53;14.87;;;;;;;;;;4994187;28;20204;-65
2021/12/12 10:57:33;;;;;;;20.37;15.17;;;;;;;;;;4996040;28;20173;-64
2021/12/12 10:59:59;;;;;;;17.90;14.37;;;;;;;;;;4995710;28;20268;-65
2021/12/12 11:02:34;;;;;;;16.07;13.43;;;;;;;;;;4995555;28;20231;-63
2021/12/12 11:05:10;;;;;;;22.17;14.10;;;;;;;;;;4995527;28;20198;-63
2021/12/12 11:07:38;;;;;;;19.67;14.57;;;;;;;;;;4995711;28;20173;-62
2021/12/12 11:10:10;;;;;;;16.97;14.57;;;;;;;;;;4995670;28;20617;-63
2021/12/12 11:12:55;;;;;;;20.30;14.90;;;;;;;;;;4996188;28;20223;-66
2021/12/12 11:15:24;;;;;;;19.07;14.40;;;;;;;;;;4995378;28;20200;-66
2021/12/12 11:18:16;;;;;;;19.50;13.70;;;;;;;;;;4995661;28;20180;-67
2021/12/12 11:20:46;;;;;;;18.13;14.37;;;;;;;;;;4965718;28;20275;-63
2021/12/12 11:23:30;;;;;;;18.77;14.90;;;;;;;;;;4995662;28;20243;-63
2021/12/12 11:25:59;;;;;;;20.07;15.37;;;;;;;;;;4995358;28;20215;-63
2021/12/12 11:28:28;;;;;;;24.80;15.27;;;;;;;;;;4995441;28;20203;-63
2021/12/12 11:31:00;;;;;;;18.60;15.60;;;;;;;;;;4995811;28;20184;-70
2021/12/12 11:33:27;;;;;;;18.43;14.83;;;;;;;;;;4995713;28;20548;-64
2021/12/12 11:35:54;;;;;;;31.73;23.43;;;;;;;;;;4994658;28;20324;-65
2021/12/12 11:38:26;;;;;;;19.33;16.03;;;;;;;;;;4995743;28;20189;-63
2021/12/12 11:41:04;;;;;;;22.17;18.80;;;;;;;;;;4995504;28;20184;-70
2021/12/12 11:43:35;;;;;;;24.53;17.80;;;;;;;;;;4994990;28;20208;-64
2021/12/12 11:46:04;;;;;;;31.17;20.97;;;;;;;;;;4994602;28;20656;-69
2021/12/12 11:48:49;;;;;;;23.83;17.03;;;;;;;;;;4994674;28;20180;-62
2021/12/12 11:51:17;;;;;;;25.60;20.47;;;;;;;;;;4995255;28;20200;-65
2021/12/12 11:53:46;;;;;;;33.43;26.17;;;;;;;;;;4994440;28;20192;-65
2021/12/12 11:56:24;;;;;;;33.23;27.70;;;;;;;;;;4993681;28;20184;-65
2021/12/12 11:58:50;;;;;;;28.43;18.50;;;;;;;;;;4995529;28;20208;-67
2021/12/12 12:01:34;;;;;;;31.73;23.23;;;;;;;;;;4993980;28;20191;-66
2021/12/12 12:04:03;;;;;;;25.03;20.07;;;;;;;;;;4995640;28;20636;-65
2021/12/12 12:06:32;;;;;;;45.70;28.83;;;;;;;;;;4997884;28;20614;-65
2021/12/12 12:08:59;;;;;;;32.57;21.97;;;;;;;;;;4997414;28;20204;-64
2021/12/12 12:11:48;;;;;;;27.10;19.20;;;;;;;;;;4998626;28;20173;-65
2021/12/12 12:14:30;;;;;;;27.27;20.80;;;;;;;;;;4998930;28;20643;-65
2021/12/12 12:17:03;;;;;;;33.20;21.40;;;;;;;;;;4998798;28;20690;-66
2021/12/12 12:19:44;;;;;;;29.53;19.57;;;;;;;;;;4998923;28;20632;-70
2021/12/12 12:22:29;;;;;;;33.47;23.57;;;;;;;;;;4998721;28;20204;-65
2021/12/12 12:25:12;;;;;;;24.47;19.10;;;;;;;;;;4998359;28;20235;-70
2021/12/12 12:27:43;;;;;;;27.10;20.57;;;;;;;;;;4997371;28;20181;-66
2021/12/12 12:30:28;;;;;;;25.93;18.13;;;;;;;;;;4997277;28;20200;-65
2021/12/12 12:33:12;;;;;;;28.53;19.27;;;;;;;;;;4998421;28;20189;-64
2021/12/12 12:35:57;;;;;;;19.80;16.97;;;;;;;;;;4998298;28;20282;-66
2021/12/12 12:38:42;;;;;;;30.07;22.30;;;;;;;;;;4997271;28;20598;-64
2021/12/12 12:41:27;;;;;;;27.23;18.70;;;;;;;;;;4998426;28;20728;-65
2021/12/12 12:44:12;;;;;;;38.87;25.33;;;;;;;;;;4996621;28;20209;-66
2021/12/12 12:46:51;;;;;;;24.67;18.00;;;;;;;;;;4997358;28;20212;-64
2021/12/12 12:49:35;;;;;;;25.30;19.50;;;;;;;;;;4998446;28;20176;-69
2021/12/12 12:52:13;;;;;;;33.13;21.97;;;;;;;;;;4998140;28;20667;-62
2021/12/12 12:54:42;;;;;;;25.53;19.30;;;;;;;;;;4998328;28;20201;-67
2021/12/12 12:57:11;;;;;;;30.77;19.50;;;;;;;;;;4997800;28;20195;-65
2021/12/12 12:59:58;;;;;;;40.60;24.50;;;;;;;;;;4996033;28;20263;-64
2021/12/12 13:02:43;;;;;;;22.70;17.67;;;;;;;;;;4997599;28;20625;-63
2021/12/12 13:05:15;;;;;;;20.77;17.27;;;;;;;;;;4996406;28;20569;-63
2021/12/12 13:07:41;;;;;;;24.37;17.83;;;;;;;;;;4997379;28;20196;-62
2021/12/12 13:10:14;;;;;;;22.50;17.00;;;;;;;;;;4997563;28;20633;-64
2021/12/12 13:12:45;;;;;;;22.07;17.77;;;;;;;;;;4996291;28;20193;-67
2021/12/12 13:15:17;;;;;;;22.97;16.23;;;;;;;;;;4997618;28;20258;-64
2021/12/12 13:17:54;;;;;;;24.87;16.80;;;;;;;;;;4996704;28;20188;-63
2021/12/12 13:20:26;;;;;;;24.03;16.40;;;;;;;;;;4997435;28;20632;-63
2021/12/12 13:22:55;;;;;;;22.50;16.63;;;;;;;;;;4995632;28;20250;-63
2021/12/12 13:25:21;;;;;;;23.97;17.07;;;;;;;;;;4995306;28;20720;-64
2021/12/12 13:28:08;;;;;;;24.93;17.30;;;;;;;;;;4996838;28;20185;-64
2021/12/12 13:31:01;;;;;;;23.53;16.00;;;;;;;;;;4995628;28;20565;-63
2021/12/12 13:33:30;;;;;;;24.30;16.97;;;;;;;;;;4993478;28;20192;-64
2021/12/12 13:35:59;;;;;;;23.60;15.80;;;;;;;;;;4995633;28;20258;-64
2021/12/12 13:38:30;;;;;;;26.10;17.40;;;;;;;;;;4996606;28;20205;-63
2021/12/12 13:41:19;;;;;;;22.33;16.80;;;;;;;;;;4996077;28;20165;-67
2021/12/12 13:43:53;;;;;;;21.03;14.63;;;;;;;;;;4985716;28;20216;-66
2021/12/12 13:46:37;;;;;;;22.37;14.23;;;;;;;;;;4996440;28;20160;-63
2021/12/12 13:49:23;;;;;;;17.80;12.73;;;;;;;;;;4996795;28;20539;-65
2021/12/12 13:52:04;;;;;;;16.60;12.30;;;;;;;;;;4995048;28;20181;-65
2021/12/12 13:54:42;;;;;;;20.50;16.47;;;;;;;;;;4995580;28;20279;-66
2021/12/12 13:57:11;;;;;;;15.70;12.43;;;;;;;;;;4995600;28;20609;-63
2021/12/12 13:59:43;;;;;;;18.47;13.63;;;;;;;;;;4996252;28;20180;-62
2021/12/12 14:02:13;;;;;;;24.07;14.00;;;;;;;;;;4996219;28;20192;-66
2021/12/12 14:04:58;;;;;;;13.50;10.37;;;;;;;;;;4995633;28;20617;-66
2021/12/12 14:07:27;;;;;;;22.30;17.93;;;;;;;;;;4995504;28;20180;-66
2021/12/12 14:09:54;;;;;;;23.67;18.00;;;;;;;;;;4993947;28;20216;-66
2021/12/12 14:12:21;;;;;;;23.50;19.20;;;;;;;;;;4995413;28;20208;-66
2021/12/12 14:14:53;;;;;;;26.27;17.10;;;;;;;;;;4994287;28;20299;-64
2021/12/12 14:17:30;;;;;;;24.30;18.67;;;;;;;;;;4994890;28;20187;-66
2021/12/12 14:19:59;;;;;;;17.50;13.33;;;;;;;;;;4993603;28;20216;-66
2021/12/12 14:22:26;;;;;;;22.10;17.17;;;;;;;;;;4993464;28;20211;-65
2021/12/12 14:24:56;;;;;;;24.00;17.40;;;;;;;;;;4993302;28;20576;-66
2021/12/12 14:27:23;;;;;;;19.00;15.90;;;;;;;;;;4992804;28;20181;-65
2021/12/12 14:29:50;;;;;;;32.10;25.77;;;;;;;;;;4993516;28;20204;-68
2021/12/12 14:32:19;;;;;;;24.37;19.63;;;;;;;;;;4994501;28;20191;-66
2021/12/12 14:34:51;;;;;;;19.47;15.73;;;;;;;;;;4994654;28;20200;-65
2021/12/12 14:37:19;;;;;;;21.87;16.73;;;;;;;;;;4994745;28;20185;-66
2021/12/12 14:39:47;;;;;;;17.13;13.63;;;;;;;;;;4993720;28;20192;-66
2021/12/12 14:42:24;;;;;;;24.63;17.70;;;;;;;;;;4992995;28;20204;-65
2021/12/12 14:44:51;;;;;;;16.23;14.27;;;;;;;;;;4993022;28;20196;-65
2021/12/12 14:47:21;;;;;;;11.13;9.77;;;;;;;;;;4993578;28;20234;-64
2021/12/12 14:49:50;;;;;;;12.43;10.93;;;;;;;;;;4995972;28;20699;-64
2021/12/12 14:52:21;;;;;;;13.40;11.93;;;;;;;;;;4995312;28;20231;-65
2021/12/12 14:54:51;;;;;;;14.57;12.13;;;;;;;;;;4994423;28;20203;-66
2021/12/12 14:57:19;;;;;;;20.40;15.73;;;;;;;;;;4993599;28;20625;-65